Time;durP1;ratioP1;P1;durP2;ratioP2;P2;SDS_P1;SDS_P2;PMS_P1;PMS_P2;Temp;Humidity;BMP_temperature;BMP_pressure;BME280_temperature;BME280_humidity;BME280_pressure;Samples;Min_cycle;Max_cycle;Signal;HPM_P1;HPM_P2
2022/11/05 00:09:32;;;;;;;8.30;2.95;;;;;;;;;;7387849;19;20009;-71
2022/11/05 00:17:40;;;;;;;5.82;2.80;;;;;;;;;;7387057;19;20636;-70
2022/11/05 00:20:07;;;;;;;6.70;3.20;;;;;;;;;;7387443;19;20011;-71
2022/11/05 00:25:18;;;;;;;6.53;3.85;;;;;;;;;;7387220;19;20098;-69
2022/11/05 00:27:50;;;;;;;9.38;3.67;;;;;;;;;;7387372;19;20006;-69
2022/11/05 00:30:21;;;;;;;6.95;3.50;;;;;;;;;;7387248;19;20340;-70
2022/11/05 00:32:48;;;;;;;8.73;4.05;;;;;;;;;;7385663;19;20089;-71
2022/11/05 00:35:14;;;;;;;8.32;3.78;;;;;;;;;;7385615;19;20406;-71
2022/11/05 00:37:40;;;;;;;6.18;3.72;;;;;;;;;;7383570;19;20074;-70
2022/11/05 00:40:07;;;;;;;7.97;3.92;;;;;;;;;;7390916;19;20035;-70
2022/11/05 00:45:16;;;;;;;7.50;3.28;;;;;;;;;;7387565;19;20017;-71
2022/11/05 00:50:26;;;;;;;8.88;3.88;;;;;;;;;;7387272;19;20015;-71
2022/11/05 00:52:55;;;;;;;6.80;3.72;;;;;;;;;;7385282;19;20459;-70
2022/11/05 00:55:23;;;;;;;8.18;4.22;;;;;;;;;;7387074;19;19998;-72
2022/11/05 00:57:49;;;;;;;7.43;3.75;;;;;;;;;;7385675;19;20332;-71
2022/11/05 01:00:14;;;;;;;11.35;4.25;;;;;;;;;;7387393;19;20023;-72
2022/11/05 01:02:40;;;;;;;9.40;4.35;;;;;;;;;;7384969;19;20002;-71
2022/11/05 01:05:05;;;;;;;11.90;5.10;;;;;;;;;;7386664;19;20009;-71
2022/11/05 01:07:31;;;;;;;9.63;4.75;;;;;;;;;;7390408;19;20005;-70
2022/11/05 01:09:56;;;;;;;8.35;4.65;;;;;;;;;;7385036;19;20003;-72
2022/11/05 01:12:21;;;;;;;9.10;5.28;;;;;;;;;;7382657;19;20010;-71
2022/11/05 01:14:47;;;;;;;14.52;5.70;;;;;;;;;;7385878;19;19998;-71
2022/11/05 01:17:12;;;;;;;11.88;5.72;;;;;;;;;;7385964;19;20005;-71
2022/11/05 01:19:38;;;;;;;11.98;5.90;;;;;;;;;;7384128;19;20471;-72
2022/11/05 01:22:03;;;;;;;10.68;5.65;;;;;;;;;;7384577;19;20586;-72
2022/11/05 01:24:29;;;;;;;10.05;5.65;;;;;;;;;;7386211;19;19994;-71
2022/11/05 01:26:54;;;;;;;12.32;6.50;;;;;;;;;;7392022;19;20007;-72
2022/11/05 01:29:19;;;;;;;11.07;5.80;;;;;;;;;;7393211;19;20154;-70
2022/11/05 01:31:45;;;;;;;10.52;5.82;;;;;;;;;;7396414;19;20002;-71
2022/11/05 01:34:10;;;;;;;13.00;6.72;;;;;;;;;;7392702;19;20006;-72
2022/11/05 01:36:35;;;;;;;11.77;6.85;;;;;;;;;;7392411;19;20455;-72
2022/11/05 01:39:01;;;;;;;14.35;7.38;;;;;;;;;;7390529;19;20016;-71
2022/11/05 01:41:26;;;;;;;14.60;7.65;;;;;;;;;;7391669;19;20022;-71
2022/11/05 01:43:56;;;;;;;11.27;6.50;;;;;;;;;;7392214;19;20075;-71
2022/11/05 01:46:24;;;;;;;15.10;7.75;;;;;;;;;;7392172;19;20377;-71
2022/11/05 01:48:51;;;;;;;12.68;7.15;;;;;;;;;;7392438;19;20007;-71
2022/11/05 01:51:21;;;;;;;14.18;7.35;;;;;;;;;;7391359;19;20010;-71
2022/11/05 01:53:54;;;;;;;14.98;7.60;;;;;;;;;;7392297;19;20010;-72
2022/11/05 01:56:29;;;;;;;15.10;7.80;;;;;;;;;;7390660;19;20042;-72
2022/11/05 01:59:02;;;;;;;11.98;7.68;;;;;;;;;;7389168;19;20480;-70
2022/11/05 02:01:27;;;;;;;16.52;8.70;;;;;;;;;;7390873;19;20119;-70
2022/11/05 02:03:59;;;;;;;17.35;9.32;;;;;;;;;;7391644;19;19999;-71
2022/11/05 02:06:27;;;;;;;17.02;8.85;;;;;;;;;;7391930;19;20027;-70
2022/11/05 02:09:11;;;;;;;16.85;9.35;;;;;;;;;;7391533;19;20027;-72
2022/11/05 02:11:36;;;;;;;16.65;8.60;;;;;;;;;;7393059;19;20547;-73
2022/11/05 02:14:02;;;;;;;18.35;9.60;;;;;;;;;;7391611;19;20129;-71
2022/11/05 02:16:52;;;;;;;20.40;9.75;;;;;;;;;;7391955;19;20030;-72
2022/11/05 02:19:42;;;;;;;20.05;10.35;;;;;;;;;;7389560;19;20006;-70
2022/11/05 02:22:17;;;;;;;22.08;10.15;;;;;;;;;;7389837;19;19998;-73
2022/11/05 02:25:10;;;;;;;22.13;10.68;;;;;;;;;;7391208;19;20002;-72
2022/11/05 02:28:01;;;;;;;19.80;10.82;;;;;;;;;;7390941;19;20007;-72
2022/11/05 02:30:56;;;;;;;19.20;10.73;;;;;;;;;;7390895;19;19999;-72
2022/11/05 02:33:45;;;;;;;19.73;10.80;;;;;;;;;;7386558;19;20009;-71
2022/11/05 02:36:53;;;;;;;22.88;11.20;;;;;;;;;;7389900;19;20022;-72
2022/11/05 02:39:28;;;;;;;21.52;10.25;;;;;;;;;;7386874;19;20010;-71
2022/11/05 02:42:17;;;;;;;23.27;10.57;;;;;;;;;;7388669;19;20006;-72
2022/11/05 02:45:00;;;;;;;22.50;10.85;;;;;;;;;;7390619;19;20074;-72
2022/11/05 02:47:46;;;;;;;23.23;10.48;;;;;;;;;;7386494;19;20119;-71
2022/11/05 02:50:20;;;;;;;21.60;11.25;;;;;;;;;;7390434;19;20001;-71
2022/11/05 02:53:01;;;;;;;21.60;10.95;;;;;;;;;;7388246;19;20065;-72
2022/11/05 02:55:41;;;;;;;24.63;11.27;;;;;;;;;;7390474;19;20381;-71
2022/11/05 02:58:07;;;;;;;21.48;11.15;;;;;;;;;;7388939;19;20337;-71
2022/11/05 03:00:54;;;;;;;26.80;11.48;;;;;;;;;;7390456;19;20058;-72
2022/11/05 03:03:28;;;;;;;28.10;12.05;;;;;;;;;;7386570;19;20018;-72
2022/11/05 03:05:56;;;;;;;31.00;11.15;;;;;;;;;;7390325;19;19999;-72
2022/11/05 03:08:33;;;;;;;25.42;12.43;;;;;;;;;;7391115;19;20487;-71
2022/11/05 03:11:12;;;;;;;25.83;12.38;;;;;;;;;;7398274;19;19994;-71
2022/11/05 03:14:08;;;;;;;27.45;12.27;;;;;;;;;;7394360;19;19999;-71
2022/11/05 03:16:43;;;;;;;25.40;12.52;;;;;;;;;;7394013;19;19999;-73
2022/11/05 03:19:18;;;;;;;24.73;12.30;;;;;;;;;;7389549;19;19998;-72
2022/11/05 03:21:59;;;;;;;24.88;12.63;;;;;;;;;;7388644;19;20422;-72
2022/11/05 03:24:33;;;;;;;27.13;12.07;;;;;;;;;;7389489;19;20057;-72
2022/11/05 03:27:14;;;;;;;26.55;13.07;;;;;;;;;;7393706;19;20749;-72
2022/11/05 03:29:45;;;;;;;;;;;;;;;;;;7389840;19;20476;-72
2022/11/05 03:32:12;;;;;;;24.15;12.45;;;;;;;;;;7386403;19;19921;-72
2022/11/05 03:34:44;;;;;;;26.60;12.23;;;;;;;;;;7388855;19;19999;-72
2022/11/05 03:37:10;;;;;;;23.60;12.05;;;;;;;;;;7386501;19;20027;-73
2022/11/05 03:39:43;;;;;;;23.55;12.52;;;;;;;;;;7386697;19;20002;-72
2022/11/05 03:42:14;;;;;;;23.80;11.13;;;;;;;;;;7387374;19;19999;-72
2022/11/05 03:44:44;;;;;;;20.13;10.48;;;;;;;;;;7388596;19;20062;-72
2022/11/05 03:47:14;;;;;;;18.97;9.47;;;;;;;;;;7386810;19;20335;-72
2022/11/05 03:50:11;;;;;;;17.42;7.65;;;;;;;;;;7388657;19;20031;-71
2022/11/05 03:52:45;;;;;;;11.77;6.53;;;;;;;;;;7385846;19;20058;-73
2022/11/05 03:55:11;;;;;;;11.38;6.28;;;;;;;;;;7386344;19;20018;-71
2022/11/05 03:57:42;;;;;;;11.32;5.70;;;;;;;;;;7387479;19;20472;-71
2022/11/05 04:00:08;;;;;;;;;;;;;;;;;;7386952;19;20022;-73
2022/11/05 04:02:34;;;;;;;8.30;4.50;;;;;;;;;;7386394;19;19970;-72
2022/11/05 04:05:00;;;;;;;8.13;4.25;;;;;;;;;;7385815;19;19994;-72
2022/11/05 04:18:20;;;;;;;9.98;3.85;;;;;;;;;;7386233;19;20565;-72
2022/11/05 04:26:14;;;;;;;5.82;3.30;;;;;;;;;;7387650;19;20140;-72
2022/11/05 04:31:24;;;;;;;5.88;2.80;;;;;;;;;;7386162;19;20405;-72
2022/11/05 04:33:49;;;;;;;7.97;2.78;;;;;;;;;;7386817;19;20003;-70
2022/11/05 04:36:14;;;;;;;6.70;2.85;;;;;;;;;;7387039;19;20011;-72
2022/11/05 04:38:40;;;;;;;5.00;2.50;;;;;;;;;;7385240;19;19991;-72
2022/11/05 04:41:12;;;;;;;6.03;2.78;;;;;;;;;;7388928;19;20285;-72
2022/11/05 04:43:37;;;;;;;6.25;2.92;;;;;;;;;;7384661;19;20023;-72
2022/11/05 04:46:02;;;;;;;6.10;2.92;;;;;;;;;;7387031;19;19999;-71
2022/11/05 04:48:28;;;;;;;5.95;2.70;;;;;;;;;;7387028;19;20325;-72
2022/11/05 04:50:53;;;;;;;5.53;2.90;;;;;;;;;;7387685;19;20075;-71
2022/11/05 04:53:18;;;;;;;9.70;3.03;;;;;;;;;;7384281;19;20357;-72
2022/11/05 04:55:44;;;;;;;5.75;2.67;;;;;;;;;;7386714;19;20032;-72
2022/11/05 04:58:09;;;;;;;4.32;2.38;;;;;;;;;;7385284;19;20518;-72
2022/11/05 05:00:34;;;;;;;3.95;2.25;;;;;;;;;;7387593;19;20024;-70
2022/11/05 05:02:59;;;;;;;6.40;2.30;;;;;;;;;;7391535;19;20031;-70
2022/11/05 05:05:25;;;;;;;5.93;2.13;;;;;;;;;;7394023;19;20002;-72
2022/11/05 05:07:50;;;;;;;4.43;2.10;;;;;;;;;;7388835;19;19998;-70
2022/11/05 05:10:16;;;;;;;3.10;1.70;;;;;;;;;;7394169;19;20074;-72
2022/11/05 05:12:41;;;;;;;5.25;2.20;;;;;;;;;;7392311;19;20015;-72
2022/11/05 05:15:08;;;;;;;4.40;2.00;;;;;;;;;;7394352;19;20005;-70
2022/11/05 05:17:33;;;;;;;5.97;2.40;;;;;;;;;;7391851;19;20365;-71
2022/11/05 05:22:42;;;;;;;6.32;2.70;;;;;;;;;;7391403;19;20021;-72
2022/11/05 05:25:08;;;;;;;5.93;2.47;;;;;;;;;;7396742;19;19995;-72
2022/11/05 05:27:33;;;;;;;6.22;2.67;;;;;;;;;;7393525;19;20505;-71
2022/11/05 05:29:59;;;;;;;6.57;3.30;;;;;;;;;;7393121;19;19994;-72
2022/11/05 05:32:25;;;;;;;7.38;3.35;;;;;;;;;;7391789;19;20023;-72
2022/11/05 05:34:51;;;;;;;9.70;3.58;;;;;;;;;;7392751;19;20003;-73
2022/11/05 05:37:17;;;;;;;7.43;3.88;;;;;;;;;;7394451;19;20014;-71
2022/11/05 05:39:46;;;;;;;9.20;3.97;;;;;;;;;;7392362;19;20301;-72
2022/11/05 05:42:12;;;;;;;11.75;4.88;;;;;;;;;;7389120;19;20006;-71
2022/11/05 05:44:38;;;;;;;11.45;4.85;;;;;;;;;;7392660;19;20026;-70
2022/11/05 05:47:03;;;;;;;12.07;5.63;;;;;;;;;;7390140;19;19998;-72
2022/11/05 05:49:28;;;;;;;14.40;5.75;;;;;;;;;;7390992;19;20027;-73
2022/11/05 05:51:55;;;;;;;11.02;5.93;;;;;;;;;;7389169;19;20002;-71
2022/11/05 05:54:21;;;;;;;12.20;5.50;;;;;;;;;;7391807;19;20006;-71
2022/11/05 05:56:47;;;;;;;17.38;6.07;;;;;;;;;;7392071;19;19998;-71
2022/11/05 05:59:12;;;;;;;15.82;6.50;;;;;;;;;;7391852;19;19998;-72
2022/11/05 06:01:38;;;;;;;10.35;5.78;;;;;;;;;;7391815;19;20395;-72
2022/11/05 06:04:03;;;;;;;14.23;6.53;;;;;;;;;;7392313;19;20297;-72
2022/11/05 06:06:29;;;;;;;12.38;6.05;;;;;;;;;;7391998;19;20315;-72
2022/11/05 06:08:55;;;;;;;13.20;5.88;;;;;;;;;;7391943;19;20459;-70
2022/11/05 06:11:21;;;;;;;15.57;6.45;;;;;;;;;;7394626;19;19998;-72
2022/11/05 06:13:47;;;;;;;12.23;6.22;;;;;;;;;;7304609;19;20017;-73
2022/11/05 06:16:12;;;;;;;16.33;7.15;;;;;;;;;;7392950;19;19995;-73
2022/11/05 06:18:38;;;;;;;21.60;6.93;;;;;;;;;;7393535;19;20012;-73
2022/11/05 06:21:11;;;;;;;13.85;7.05;;;;;;;;;;7394554;19;19994;-73
2022/11/05 06:23:40;;;;;;;13.23;7.18;;;;;;;;;;7392350;19;20002;-73
2022/11/05 06:26:08;;;;;;;12.18;6.32;;;;;;;;;;7394182;19;20002;-72
2022/11/05 06:28:34;;;;;;;16.00;6.80;;;;;;;;;;7395286;19;20006;-74
2022/11/05 06:31:00;;;;;;;14.55;6.68;;;;;;;;;;7390963;19;20384;-73
2022/11/05 06:33:26;;;;;;;14.02;6.35;;;;;;;;;;7387529;19;20365;-72
2022/11/05 06:35:52;;;;;;;13.75;6.30;;;;;;;;;;7387284;19;20002;-72
2022/11/05 06:38:18;;;;;;;12.35;6.35;;;;;;;;;;7386314;19;20106;-73
2022/11/05 06:40:43;;;;;;;10.77;6.13;;;;;;;;;;7390143;19;20454;-73
2022/11/05 06:43:09;;;;;;;11.82;6.10;;;;;;;;;;7385614;19;19998;-71
2022/11/05 06:45:34;;;;;;;13.98;6.07;;;;;;;;;;7393917;19;20043;-73
2022/11/05 06:48:00;;;;;;;11.65;5.75;;;;;;;;;;7393282;19;20028;-72
2022/11/05 06:50:26;;;;;;;15.60;6.40;;;;;;;;;;7394408;19;19986;-72
2022/11/05 06:52:54;;;;;;;14.13;6.78;;;;;;;;;;7390656;19;20015;-73
2022/11/05 06:55:19;;;;;;;15.60;6.55;;;;;;;;;;7394622;19;20472;-72
2022/11/05 06:57:44;;;;;;;13.23;6.93;;;;;;;;;;7393668;19;19999;-72
2022/11/05 07:00:10;;;;;;;16.02;6.13;;;;;;;;;;7392264;19;19994;-73
2022/11/05 07:02:35;;;;;;;16.08;6.07;;;;;;;;;;7388721;19;20024;-73
2022/11/05 07:05:01;;;;;;;14.88;6.88;;;;;;;;;;7390368;19;20114;-72
2022/11/05 07:07:26;;;;;;;12.45;6.63;;;;;;;;;;7390428;19;20002;-73
2022/11/05 07:09:51;;;;;;;13.73;6.28;;;;;;;;;;7394096;19;20001;-73
2022/11/05 07:12:17;;;;;;;13.57;6.25;;;;;;;;;;7390770;19;20090;-74
2022/11/05 07:14:42;;;;;;;20.90;5.95;;;;;;;;;;7392621;19;20054;-73
2022/11/05 07:17:07;;;;;;;15.60;6.18;;;;;;;;;;7393638;19;19991;-73
2022/11/05 07:19:33;;;;;;;13.52;6.28;;;;;;;;;;7394202;19;20007;-73
2022/11/05 07:21:58;;;;;;;12.98;6.65;;;;;;;;;;7391004;19;20414;-73
2022/11/05 07:24:23;;;;;;;14.05;7.28;;;;;;;;;;7383834;19;19991;-71
2022/11/05 07:26:49;;;;;;;11.57;6.63;;;;;;;;;;7388392;19;19991;-73
2022/11/05 07:29:17;;;;;;;14.50;6.50;;;;;;;;;;7392330;19;20445;-73
2022/11/05 07:31:42;;;;;;;11.25;6.25;;;;;;;;;;7389941;19;20084;-72
2022/11/05 07:34:07;;;;;;;15.73;7.57;;;;;;;;;;7393009;19;20006;-73
2022/11/05 07:36:33;;;;;;;12.90;6.82;;;;;;;;;;7391903;19;19998;-73
2022/11/05 07:38:58;;;;;;;12.88;6.00;;;;;;;;;;7390874;19;20069;-73
2022/11/05 07:41:23;;;;;;;13.50;5.80;;;;;;;;;;7393354;19;19994;-74
2022/11/05 07:43:48;;;;;;;11.32;6.10;;;;;;;;;;7389431;19;19995;-72
2022/11/05 07:46:14;;;;;;;11.85;6.03;;;;;;;;;;7390251;19;19995;-72
2022/11/05 07:48:40;;;;;;;10.48;5.97;;;;;;;;;;7391758;19;20089;-72
2022/11/05 07:51:05;;;;;;;12.20;5.32;;;;;;;;;;7388690;19;20023;-74
2022/11/05 07:53:31;;;;;;;12.48;5.65;;;;;;;;;;7389475;19;20592;-73
2022/11/05 07:55:57;;;;;;;12.48;5.95;;;;;;;;;;7387645;19;20024;-73
2022/11/05 07:58:23;;;;;;;12.00;6.03;;;;;;;;;;7387920;19;19999;-71
2022/11/05 08:00:48;;;;;;;12.88;5.80;;;;;;;;;;7392194;19;19986;-73
2022/11/05 08:03:16;;;;;;;17.60;8.98;;;;;;;;;;7386729;19;20322;-72
2022/11/05 08:05:44;;;;;;;13.95;6.00;;;;;;;;;;7390757;19;20001;-72
2022/11/05 08:08:12;;;;;;;8.35;4.25;;;;;;;;;;7391946;19;20516;-71
2022/11/05 08:10:38;;;;;;;12.05;4.82;;;;;;;;;;7389595;19;20482;-72
2022/11/05 08:13:04;;;;;;;11.93;5.28;;;;;;;;;;7388321;19;20024;-72
2022/11/05 08:15:30;;;;;;;9.50;5.13;;;;;;;;;;7391690;19;20465;-72
2022/11/05 08:18:04;;;;;;;12.00;5.78;;;;;;;;;;7388668;19;19990;-72
2022/11/05 08:20:30;;;;;;;10.85;4.93;;;;;;;;;;7391158;19;20011;-78
2022/11/05 08:22:56;;;;;;;9.07;4.63;;;;;;;;;;7388026;19;19998;-73
2022/11/05 08:25:22;;;;;;;11.25;4.90;;;;;;;;;;7390837;19;20319;-71
2022/11/05 08:28:03;;;;;;;9.88;5.35;;;;;;;;;;7390532;19;20078;-74
2022/11/05 08:30:30;;;;;;;;;;;;;;;;;;7391586;19;19995;-76
2022/11/05 08:33:08;;;;;;;8.43;4.57;;;;;;;;;;7385490;19;19914;-71
2022/11/05 08:35:35;;;;;;;11.52;4.95;;;;;;;;;;7390239;19;19999;-71
2022/11/05 08:38:03;;;;;;;7.30;4.45;;;;;;;;;;7393247;19;20006;-71
2022/11/05 08:40:31;;;;;;;12.27;5.18;;;;;;;;;;7389480;19;20005;-72
2022/11/05 08:43:02;;;;;;;7.90;4.07;;;;;;;;;;7389775;19;20025;-71
2022/11/05 08:45:27;;;;;;;8.95;4.50;;;;;;;;;;7389839;19;20094;-71
2022/11/05 08:48:00;;;;;;;13.95;5.25;;;;;;;;;;7388318;19;19999;-72
2022/11/05 08:50:26;;;;;;;9.38;4.53;;;;;;;;;;7390185;19;20015;-70
2022/11/05 08:52:51;;;;;;;7.68;4.60;;;;;;;;;;7386768;19;19994;-72
2022/11/05 08:55:17;;;;;;;10.05;4.47;;;;;;;;;;7389288;19;19999;-72
2022/11/05 08:57:45;;;;;;;11.23;4.20;;;;;;;;;;7392188;19;20002;-71
2022/11/05 09:00:11;;;;;;;12.35;4.72;;;;;;;;;;7394121;19;20002;-70
2022/11/05 09:02:36;;;;;;;14.05;4.53;;;;;;;;;;7391435;19;20002;-73
2022/11/05 09:05:01;;;;;;;10.13;4.80;;;;;;;;;;7394180;19;19995;-70
2022/11/05 09:07:27;;;;;;;10.95;4.82;;;;;;;;;;7394636;19;20009;-72
2022/11/05 09:09:52;;;;;;;10.30;4.63;;;;;;;;;;7393941;19;20027;-71
2022/11/05 09:12:17;;;;;;;9.35;5.57;;;;;;;;;;7392278;19;20078;-71
2022/11/05 09:14:43;;;;;;;11.07;5.50;;;;;;;;;;7393672;19;19990;-71
2022/11/05 09:17:17;;;;;;;11.93;5.75;;;;;;;;;;7391451;19;19998;-71
2022/11/05 09:19:42;;;;;;;12.30;5.90;;;;;;;;;;7394010;19;19998;-71
2022/11/05 09:22:07;;;;;;;11.77;5.78;;;;;;;;;;7390531;19;20484;-72
2022/11/05 09:24:33;;;;;;;13.05;5.47;;;;;;;;;;7394876;19;20045;-71
2022/11/05 09:26:58;;;;;;;13.20;5.97;;;;;;;;;;7393832;19;20099;-72
2022/11/05 09:29:23;;;;;;;10.70;5.32;;;;;;;;;;7393918;19;19995;-71
2022/11/05 09:31:49;;;;;;;10.90;5.10;;;;;;;;;;7392224;19;20078;-71
2022/11/05 09:34:14;;;;;;;9.18;5.50;;;;;;;;;;7393633;19;20022;-72
2022/11/05 09:36:39;;;;;;;11.68;4.88;;;;;;;;;;7393191;19;20007;-72
2022/11/05 09:39:04;;;;;;;10.95;4.63;;;;;;;;;;7390659;19;20050;-71
2022/11/05 09:41:36;;;;;;;11.52;4.97;;;;;;;;;;7392207;19;20066;-71
2022/11/05 09:44:04;;;;;;;;;;;;;;;;;;7394277;19;20476;-71
2022/11/05 09:46:39;;;;;;;12.82;3.92;;;;;;;;;;7392292;19;20011;-71
2022/11/05 09:49:10;;;;;;;9.48;4.15;;;;;;;;;;7393963;19;20024;-71
2022/11/05 09:51:36;;;;;;;7.63;4.10;;;;;;;;;;7391939;19;20456;-71
2022/11/05 09:54:02;;;;;;;8.55;4.55;;;;;;;;;;7392575;19;19998;-71
2022/11/05 09:56:33;;;;;;;7.85;3.95;;;;;;;;;;7392723;19;20003;-72
2022/11/05 09:59:21;;;;;;;7.65;4.40;;;;;;;;;;7390427;19;19999;-71
2022/11/05 10:01:47;;;;;;;14.13;4.45;;;;;;;;;;7390935;19;20014;-71
2022/11/05 10:04:18;;;;;;;13.02;4.22;;;;;;;;;;7392085;19;19998;-71
2022/11/05 10:06:50;;;;;;;10.20;4.00;;;;;;;;;;7392339;19;20373;-71
2022/11/05 10:09:34;;;;;;;8.40;4.50;;;;;;;;;;7389706;19;19995;-72
2022/11/05 10:12:21;;;;;;;7.43;4.13;;;;;;;;;;7390940;19;20318;-72
2022/11/05 10:14:54;;;;;;;9.40;3.95;;;;;;;;;;7392263;19;20528;-70
2022/11/05 10:17:27;;;;;;;7.47;3.38;;;;;;;;;;7389259;19;20002;-72
2022/11/05 10:20:13;;;;;;;8.25;3.33;;;;;;;;;;7391575;19;20002;-72
2022/11/05 10:22:39;;;;;;;8.27;3.17;;;;;;;;;;7389731;19;20037;-71
2022/11/05 10:25:20;;;;;;;8.13;3.38;;;;;;;;;;7389683;19;19995;-70
2022/11/05 10:27:51;;;;;;;8.30;3.72;;;;;;;;;;7390918;19;19998;-72
2022/11/05 10:30:17;;;;;;;7.20;2.90;;;;;;;;;;7389511;19;20432;-76
2022/11/05 10:32:43;;;;;;;9.23;3.92;;;;;;;;;;7387444;19;20002;-76
2022/11/05 10:35:13;;;;;;;8.77;3.63;;;;;;;;;;7389591;19;19995;-76
2022/11/05 10:37:40;;;;;;;8.27;3.53;;;;;;;;;;7389770;19;20468;-75
2022/11/05 10:40:18;;;;;;;5.22;2.78;;;;;;;;;;7287657;19;19994;-78
2022/11/05 10:42:52;;;;;;;7.15;3.10;;;;;;;;;;7390237;19;20087;-76
2022/11/05 10:45:49;;;;;;;9.07;3.15;;;;;;;;;;7390519;19;20021;-76
2022/11/05 10:48:25;;;;;;;4.32;2.40;;;;;;;;;;7390624;19;20003;-76
2022/11/05 10:50:51;;;;;;;6.80;2.55;;;;;;;;;;7390807;19;20370;-75
2022/11/05 10:53:21;;;;;;;5.38;2.80;;;;;;;;;;7335141;19;20006;-77
2022/11/05 10:55:49;;;;;;;5.70;2.97;;;;;;;;;;7393433;19;20122;-76
2022/11/05 10:58:15;;;;;;;8.07;3.10;;;;;;;;;;7389433;19;20074;-77
2022/11/05 11:00:58;;;;;;;7.97;2.97;;;;;;;;;;7390308;19;20003;-76
2022/11/05 11:03:52;;;;;;;6.75;2.55;;;;;;;;;;7387964;19;20023;-75
2022/11/05 11:06:20;;;;;;;6.07;2.80;;;;;;;;;;7391863;19;20060;-76
2022/11/05 11:08:48;;;;;;;8.02;2.88;;;;;;;;;;7393219;19;20002;-78
2022/11/05 11:11:32;;;;;;;6.07;2.80;;;;;;;;;;7393003;19;19998;-82
2022/11/05 11:14:00;;;;;;;5.82;2.60;;;;;;;;;;7390617;19;19998;-78
2022/11/05 11:16:30;;;;;;;7.13;2.70;;;;;;;;;;7390787;19;20002;-78
2022/11/05 11:19:02;;;;;;;3.30;2.17;;;;;;;;;;7390759;19;20086;-80
2022/11/05 11:21:29;;;;;;;6.90;2.47;;;;;;;;;;7390100;19;20074;-78
2022/11/05 11:24:05;;;;;;;6.38;2.60;;;;;;;;;;7391703;19;20006;-76
2022/11/05 11:26:36;;;;;;;6.57;2.78;;;;;;;;;;7390748;19;19998;-76
2022/11/05 11:29:22;;;;;;;8.15;2.40;;;;;;;;;;7391067;19;20002;-78
2022/11/05 11:31:48;;;;;;;4.10;2.13;;;;;;;;;;7387303;19;20006;-77
2022/11/05 11:34:21;;;;;;;6.28;2.92;;;;;;;;;;7389882;19;20009;-81
2022/11/05 11:36:50;;;;;;;5.30;2.30;;;;;;;;;;7390482;19;20037;-78
2022/11/05 11:39:25;;;;;;;7.45;2.70;;;;;;;;;;7387875;19;20499;-66
2022/11/05 11:41:53;;;;;;;6.45;2.80;;;;;;;;;;7386172;19;20051;-80
2022/11/05 11:44:32;;;;;;;5.25;2.20;;;;;;;;;;7389571;19;20484;-80
2022/11/05 11:47:08;;;;;;;7.85;2.42;;;;;;;;;;7388256;19;20699;-76
2022/11/05 11:49:51;;;;;;;6.75;2.10;;;;;;;;;;7380219;19;20066;-78
2022/11/05 11:52:25;;;;;;;4.07;2.03;;;;;;;;;;7386529;19;20444;-78
2022/11/05 11:54:51;;;;;;;5.22;2.20;;;;;;;;;;7391692;19;19998;-78
2022/11/05 11:57:28;;;;;;;4.10;2.03;;;;;;;;;;7389162;19;20007;-77
2022/11/05 11:59:56;;;;;;;9.00;2.10;;;;;;;;;;7385731;19;19998;-76
2022/11/05 12:02:54;;;;;;;7.82;2.13;;;;;;;;;;7383300;19;20703;-76
2022/11/05 12:05:41;;;;;;;6.40;1.90;;;;;;;;;;7387905;19;20070;-76
2022/11/05 12:08:23;;;;;;;8.82;2.20;;;;;;;;;;7387469;19;20012;-75
2022/11/05 12:11:39;;;;;;;6.80;1.98;;;;;;;;;;7389188;19;20002;-75
2022/11/05 12:14:46;;;;;;;5.40;1.80;;;;;;;;;;7387865;19;20432;-76
2022/11/05 12:17:37;;;;;;;5.50;1.70;;;;;;;;;;7388649;19;20006;-77
2022/11/05 12:20:23;;;;;;;4.55;1.63;;;;;;;;;;7387473;19;20002;-77
2022/11/05 12:23:26;;;;;;;5.13;1.90;;;;;;;;;;7386043;19;20030;-78
2022/11/05 12:26:35;;;;;;;8.00;1.90;;;;;;;;;;7386196;19;19999;-77
2022/11/05 12:29:44;;;;;;;8.43;1.70;;;;;;;;;;7391347;19;19995;-77
2022/11/05 12:32:43;;;;;;;5.72;1.90;;;;;;;;;;7385492;19;20496;-77
2022/11/05 12:35:21;;;;;;;4.70;1.80;;;;;;;;;;7388487;19;20484;-76
2022/11/05 12:38:24;;;;;;;3.63;2.00;;;;;;;;;;7387791;19;19998;-78
2022/11/05 12:41:12;;;;;;;5.10;1.88;;;;;;;;;;7388748;19;20002;-77
2022/11/05 12:43:54;;;;;;;5.82;2.10;;;;;;;;;;7385658;19;19998;-77
2022/11/05 12:46:26;;;;;;;11.50;3.83;;;;;;;;;;7387876;19;20022;-76
2022/11/05 12:48:51;;;;;;;9.65;3.40;;;;;;;;;;7387218;19;20003;-77
2022/11/05 12:51:19;;;;;;;6.88;2.05;;;;;;;;;;7386426;19;19990;-77
2022/11/05 12:53:53;;;;;;;4.65;1.85;;;;;;;;;;7387981;19;20392;-76
2022/11/05 12:56:36;;;;;;;5.45;1.88;;;;;;;;;;7385768;19;20560;-77
2022/11/05 12:59:16;;;;;;;4.75;1.77;;;;;;;;;;7385887;19;20003;-77
2022/11/05 13:01:47;;;;;;;4.72;2.08;;;;;;;;;;7386518;19;20344;-76
2022/11/05 13:04:52;;;;;;;4.90;2.05;;;;;;;;;;7388227;19;20010;-77
2022/11/05 13:07:26;;;;;;;6.47;2.20;;;;;;;;;;7387462;19;20496;-76
2022/11/05 13:09:59;;;;;;;6.15;2.00;;;;;;;;;;7388460;19;19998;-77
2022/11/05 13:12:26;;;;;;;5.13;2.13;;;;;;;;;;7385523;19;20461;-78
2022/11/05 13:14:59;;;;;;;4.72;2.20;;;;;;;;;;7386907;19;19999;-76
2022/11/05 13:17:32;;;;;;;6.63;2.05;;;;;;;;;;7388978;19;20407;-76
2022/11/05 13:20:13;;;;;;;6.22;2.25;;;;;;;;;;7393078;19;20415;-75
2022/11/05 13:22:51;;;;;;;4.72;1.73;;;;;;;;;;7391685;19;20070;-74
2022/11/05 13:25:22;;;;;;;4.70;1.98;;;;;;;;;;7399007;19;20180;-75
2022/11/05 13:28:19;;;;;;;4.13;1.73;;;;;;;;;;7386198;19;20017;-75
2022/11/05 13:30:50;;;;;;;4.22;1.65;;;;;;;;;;7391557;19;20074;-76
2022/11/05 13:33:22;;;;;;;5.72;1.90;;;;;;;;;;7386442;19;19998;-74
2022/11/05 13:38:59;;;;;;;3.65;1.70;;;;;;;;;;7390107;19;20467;-73
2022/11/05 13:42:02;;;;;;;2.95;1.70;;;;;;;;;;7388665;19;20353;-71
2022/11/05 13:44:45;;;;;;;6.55;1.95;;;;;;;;;;7389191;19;20010;-73
2022/11/05 13:47:26;;;;;;;3.80;1.75;;;;;;;;;;7391009;19;20003;-72
2022/11/05 13:49:54;;;;;;;4.05;1.95;;;;;;;;;;7391953;19;20015;-73
2022/11/05 13:52:38;;;;;;;5.70;1.80;;;;;;;;;;7388276;19;20074;-72
2022/11/05 13:55:25;;;;;;;3.03;1.88;;;;;;;;;;7389188;19;20066;-75
2022/11/05 13:58:28;;;;;;;4.57;1.80;;;;;;;;;;7390129;19;20006;-73
2022/11/05 14:01:06;;;;;;;8.07;1.88;;;;;;;;;;7368541;19;20384;-74
2022/11/05 14:03:31;;;;;;;5.60;1.70;;;;;;;;;;7387515;19;20010;-73
2022/11/05 14:06:04;;;;;;;3.90;1.80;;;;;;;;;;7388670;19;20002;-74
2022/11/05 14:08:37;;;;;;;4.55;1.77;;;;;;;;;;7391105;19;20002;-73
2022/11/05 14:11:14;;;;;;;9.65;3.03;;;;;;;;;;7388861;19;20489;-73
2022/11/05 14:13:42;;;;;;;5.80;2.53;;;;;;;;;;7391319;19;20019;-74
2022/11/05 14:16:16;;;;;;;2.75;1.55;;;;;;;;;;7388734;19;20054;-73
2022/11/05 14:18:43;;;;;;;5.47;1.80;;;;;;;;;;7389575;19;20006;-74
2022/11/05 14:21:30;;;;;;;3.75;1.40;;;;;;;;;;7389820;19;20240;-74
2022/11/05 14:24:22;;;;;;;3.45;1.60;;;;;;;;;;7392468;19;20015;-74
2022/11/05 14:27:00;;;;;;;2.13;1.23;;;;;;;;;;7388879;19;20447;-74
2022/11/05 14:29:43;;;;;;;4.70;1.30;;;;;;;;;;7385651;19;20006;-75
2022/11/05 14:32:20;;;;;;;1.67;1.52;;;;;;;;;;7379341;19;20009;-72
2022/11/05 14:34:55;;;;;;;3.78;1.60;;;;;;;;;;7389486;19;20010;-73
2022/11/05 14:37:31;;;;;;;2.05;1.20;;;;;;;;;;7383621;19;19998;-73
2022/11/05 14:40:21;;;;;;;1.35;1.15;;;;;;;;;;7367076;19;20516;-72
2022/11/05 14:42:51;;;;;;;4.03;1.45;;;;;;;;;;7385474;19;20003;-73
2022/11/05 14:45:16;;;;;;;3.58;1.30;;;;;;;;;;7384474;19;20019;-73
2022/11/05 14:47:51;;;;;;;3.00;1.50;;;;;;;;;;7390209;19;20007;-73
2022/11/05 14:50:38;;;;;;;5.53;1.52;;;;;;;;;;7388327;19;20374;-73
2022/11/05 14:53:10;;;;;;;5.13;1.80;;;;;;;;;;7386542;19;20033;-74
2022/11/05 14:55:39;;;;;;;3.53;1.63;;;;;;;;;;7389349;19;20074;-74
2022/11/05 14:58:29;;;;;;;5.80;1.90;;;;;;;;;;7388548;19;19994;-73
2022/11/05 15:00:56;;;;;;;3.53;1.70;;;;;;;;;;7388651;19;20337;-74
2022/11/05 15:03:38;;;;;;;4.40;1.75;;;;;;;;;;7385272;19;20424;-74
2022/11/05 15:06:07;;;;;;;4.53;1.52;;;;;;;;;;7389530;19;19999;-75
2022/11/05 15:08:47;;;;;;;3.28;1.90;;;;;;;;;;7387151;19;20003;-73
2022/11/05 15:11:28;;;;;;;5.03;1.90;;;;;;;;;;7385814;19;20098;-74
2022/11/05 15:13:54;;;;;;;4.70;1.70;;;;;;;;;;7387796;19;20066;-72
2022/11/05 15:16:24;;;;;;;6.60;1.80;;;;;;;;;;7387138;19;20040;-73
2022/11/05 15:18:51;;;;;;;6.05;2.05;;;;;;;;;;7386876;19;20040;-74
2022/11/05 15:21:18;;;;;;;3.47;1.65;;;;;;;;;;7387664;19;20081;-75
2022/11/05 15:23:47;;;;;;;6.00;1.90;;;;;;;;;;7388495;19;20476;-74
2022/11/05 15:26:27;;;;;;;5.10;1.90;;;;;;;;;;7386930;19;19995;-74
2022/11/05 15:28:54;;;;;;;3.80;2.10;;;;;;;;;;7389253;19;20468;-74
2022/11/05 15:31:42;;;;;;;4.53;1.90;;;;;;;;;;7387457;19;19999;-73
2022/11/05 15:34:25;;;;;;;4.63;1.90;;;;;;;;;;7386433;19;20020;-75
2022/11/05 15:37:16;;;;;;;6.65;2.72;;;;;;;;;;7389789;19;20066;-74
2022/11/05 15:39:44;;;;;;;5.30;2.33;;;;;;;;;;7386655;19;20477;-72
2022/11/05 15:42:16;;;;;;;4.10;2.30;;;;;;;;;;7387030;19;20007;-73
2022/11/05 15:44:44;;;;;;;7.57;2.80;;;;;;;;;;7388371;19;19995;-72
2022/11/05 15:47:33;;;;;;;7.03;2.33;;;;;;;;;;7386404;19;20006;-72
2022/11/05 15:50:00;;;;;;;6.65;2.53;;;;;;;;;;7387812;19;20002;-72
2022/11/05 15:52:55;;;;;;;5.03;2.50;;;;;;;;;;7386817;19;19995;-73
2022/11/05 15:55:23;;;;;;;7.88;2.70;;;;;;;;;;7382949;19;20002;-73